sensor_id;sensor_type;location;lat;lon;timestamp;temperature;humidity
11772;DHT22;12556;55.748;13.194;2024-02-26T00:02:15;3.80;99.90
11772;DHT22;12556;55.748;13.194;2024-02-26T00:04:43;3.80;99.90
11772;DHT22;12556;55.748;13.194;2024-02-26T00:07:10;3.90;99.90
11772;DHT22;12556;55.748;13.194;2024-02-26T00:09:37;3.90;99.90
11772;DHT22;12556;55.748;13.194;2024-02-26T00:12:05;3.90;99.90
11772;DHT22;12556;55.748;13.194;2024-02-26T00:14:32;4.00;99.90
11772;DHT22;12556;55.748;13.194;2024-02-26T00:16:59;4.10;99.90
11772;DHT22;12556;55.748;13.194;2024-02-26T00:19:26;4.00;99.90
11772;DHT22;12556;55.748;13.194;2024-02-26T00:21:54;4.10;99.90
11772;DHT22;12556;55.748;13.194;2024-02-26T00:24:21;4.10;99.90
11772;DHT22;12556;55.748;13.194;2024-02-26T00:26:49;4.10;99.90
11772;DHT22;12556;55.748;13.194;2024-02-26T00:29:19;4.10;99.90
11772;DHT22;12556;55.748;13.194;2024-02-26T00:31:47;4.20;99.90
11772;DHT22;12556;55.748;13.194;2024-02-26T00:34:13;4.20;99.90
11772;DHT22;12556;55.748;13.194;2024-02-26T00:36:40;4.20;99.90
11772;DHT22;12556;55.748;13.194;2024-02-26T00:39:09;4.20;99.90
11772;DHT22;12556;55.748;13.194;2024-02-26T00:41:38;4.20;99.90
11772;DHT22;12556;55.748;13.194;2024-02-26T00:44:05;4.30;99.90
11772;DHT22;12556;55.748;13.194;2024-02-26T00:46:32;4.30;99.90
11772;DHT22;12556;55.748;13.194;2024-02-26T00:48:59;4.30;99.90
11772;DHT22;12556;55.748;13.194;2024-02-26T00:51:27;4.30;99.90
11772;DHT22;12556;55.748;13.194;2024-02-26T00:53:54;4.30;99.90
11772;DHT22;12556;55.748;13.194;2024-02-26T00:56:23;4.30;99.90
11772;DHT22;12556;55.748;13.194;2024-02-26T00:58:50;4.40;99.90
11772;DHT22;12556;55.748;13.194;2024-02-26T01:01:16;4.40;99.90
11772;DHT22;12556;55.748;13.194;2024-02-26T01:03:43;4.40;99.90
11772;DHT22;12556;55.748;13.194;2024-02-26T01:06:10;4.40;99.90
11772;DHT22;12556;55.748;13.194;2024-02-26T01:08:37;4.50;99.90
11772;DHT22;12556;55.748;13.194;2024-02-26T01:11:04;4.50;99.90
11772;DHT22;12556;55.748;13.194;2024-02-26T01:13:33;4.50;99.90
11772;DHT22;12556;55.748;13.194;2024-02-26T01:16:00;4.60;99.90
11772;DHT22;12556;55.748;13.194;2024-02-26T01:18:27;4.60;99.90
11772;DHT22;12556;55.748;13.194;2024-02-26T01:20:54;4.60;99.90
11772;DHT22;12556;55.748;13.194;2024-02-26T01:23:21;4.60;99.90
11772;DHT22;12556;55.748;13.194;2024-02-26T01:25:47;4.70;99.90
11772;DHT22;12556;55.748;13.194;2024-02-26T01:28:15;4.70;99.90
11772;DHT22;12556;55.748;13.194;2024-02-26T01:30:43;4.70;99.90
11772;DHT22;12556;55.748;13.194;2024-02-26T01:33:10;4.70;99.90
11772;DHT22;12556;55.748;13.194;2024-02-26T01:35:37;4.70;99.90
11772;DHT22;12556;55.748;13.194;2024-02-26T01:38:04;4.70;99.90
11772;DHT22;12556;55.748;13.194;2024-02-26T01:40:31;4.70;99.90
11772;DHT22;12556;55.748;13.194;2024-02-26T01:42:59;4.60;99.90
11772;DHT22;12556;55.748;13.194;2024-02-26T01:45:26;4.60;99.90
11772;DHT22;12556;55.748;13.194;2024-02-26T01:47:55;4.60;99.90
11772;DHT22;12556;55.748;13.194;2024-02-26T01:50:23;4.60;99.90
11772;DHT22;12556;55.748;13.194;2024-02-26T01:52:51;4.60;99.90
11772;DHT22;12556;55.748;13.194;2024-02-26T01:55:18;4.50;99.90
11772;DHT22;12556;55.748;13.194;2024-02-26T01:57:48;4.40;99.90
11772;DHT22;12556;55.748;13.194;2024-02-26T02:00:17;4.40;99.90
11772;DHT22;12556;55.748;13.194;2024-02-26T02:02:44;4.30;99.90
11772;DHT22;12556;55.748;13.194;2024-02-26T02:05:15;4.20;99.90
11772;DHT22;12556;55.748;13.194;2024-02-26T02:07:43;4.10;99.90
11772;DHT22;12556;55.748;13.194;2024-02-26T02:10:10;4.00;99.90
11772;DHT22;12556;55.748;13.194;2024-02-26T02:12:37;4.00;99.90
11772;DHT22;12556;55.748;13.194;2024-02-26T02:15:06;3.90;99.90
11772;DHT22;12556;55.748;13.194;2024-02-26T02:17:34;3.80;99.90
11772;DHT22;12556;55.748;13.194;2024-02-26T02:20:01;3.80;99.90
11772;DHT22;12556;55.748;13.194;2024-02-26T02:22:30;3.80;99.90
11772;DHT22;12556;55.748;13.194;2024-02-26T02:24:57;3.70;99.90
11772;DHT22;12556;55.748;13.194;2024-02-26T02:27:26;3.60;99.90
11772;DHT22;12556;55.748;13.194;2024-02-26T02:29:53;3.50;99.90
11772;DHT22;12556;55.748;13.194;2024-02-26T02:32:20;3.50;99.90
11772;DHT22;12556;55.748;13.194;2024-02-26T02:34:48;3.40;99.90
11772;DHT22;12556;55.748;13.194;2024-02-26T02:37:15;3.40;99.90
11772;DHT22;12556;55.748;13.194;2024-02-26T02:39:43;3.40;99.90
11772;DHT22;12556;55.748;13.194;2024-02-26T02:42:11;3.30;99.90
11772;DHT22;12556;55.748;13.194;2024-02-26T02:44:38;3.30;99.90
11772;DHT22;12556;55.748;13.194;2024-02-26T02:47:05;3.30;99.90
11772;DHT22;12556;55.748;13.194;2024-02-26T02:49:32;3.30;99.90
11772;DHT22;12556;55.748;13.194;2024-02-26T02:51:59;3.20;99.90
11772;DHT22;12556;55.748;13.194;2024-02-26T02:54:26;3.20;99.90
11772;DHT22;12556;55.748;13.194;2024-02-26T02:56:54;3.20;99.90
11772;DHT22;12556;55.748;13.194;2024-02-26T02:59:21;3.40;99.90
11772;DHT22;12556;55.748;13.194;2024-02-26T03:01:48;3.20;99.90
11772;DHT22;12556;55.748;13.194;2024-02-26T03:04:15;3.30;99.90
11772;DHT22;12556;55.748;13.194;2024-02-26T03:06:42;3.20;99.90
11772;DHT22;12556;55.748;13.194;2024-02-26T03:09:09;3.20;99.90
11772;DHT22;12556;55.748;13.194;2024-02-26T03:11:36;3.20;99.90
11772;DHT22;12556;55.748;13.194;2024-02-26T03:14:04;3.20;99.90
11772;DHT22;12556;55.748;13.194;2024-02-26T03:16:32;3.30;99.90
11772;DHT22;12556;55.748;13.194;2024-02-26T03:18:59;3.20;99.90
11772;DHT22;12556;55.748;13.194;2024-02-26T03:21:26;3.20;99.90
11772;DHT22;12556;55.748;13.194;2024-02-26T03:23:53;3.20;99.90
11772;DHT22;12556;55.748;13.194;2024-02-26T03:26:20;3.20;99.90
11772;DHT22;12556;55.748;13.194;2024-02-26T03:28:47;3.20;99.90
11772;DHT22;12556;55.748;13.194;2024-02-26T03:31:15;3.20;99.90
11772;DHT22;12556;55.748;13.194;2024-02-26T03:33:42;3.20;99.90
11772;DHT22;12556;55.748;13.194;2024-02-26T03:36:09;3.20;99.90
11772;DHT22;12556;55.748;13.194;2024-02-26T03:38:37;3.20;99.90
11772;DHT22;12556;55.748;13.194;2024-02-26T03:41:04;3.10;99.90
11772;DHT22;12556;55.748;13.194;2024-02-26T03:43:31;3.10;99.90
11772;DHT22;12556;55.748;13.194;2024-02-26T03:45:58;3.00;99.90
11772;DHT22;12556;55.748;13.194;2024-02-26T03:48:26;3.00;99.90
11772;DHT22;12556;55.748;13.194;2024-02-26T03:50:53;3.00;99.90
11772;DHT22;12556;55.748;13.194;2024-02-26T03:53:20;2.90;99.90
11772;DHT22;12556;55.748;13.194;2024-02-26T03:55:47;2.90;99.90
11772;DHT22;12556;55.748;13.194;2024-02-26T03:58:14;2.80;99.90
11772;DHT22;12556;55.748;13.194;2024-02-26T04:00:42;2.70;99.90
11772;DHT22;12556;55.748;13.194;2024-02-26T04:03:09;2.70;99.90
11772;DHT22;12556;55.748;13.194;2024-02-26T04:05:38;2.60;99.90
11772;DHT22;12556;55.748;13.194;2024-02-26T04:08:06;2.50;99.90
11772;DHT22;12556;55.748;13.194;2024-02-26T04:10:33;2.40;99.90
11772;DHT22;12556;55.748;13.194;2024-02-26T04:13:04;2.40;99.90
11772;DHT22;12556;55.748;13.194;2024-02-26T04:15:31;2.30;99.90
11772;DHT22;12556;55.748;13.194;2024-02-26T04:17:58;2.30;99.90
11772;DHT22;12556;55.748;13.194;2024-02-26T04:20:24;2.20;99.90
11772;DHT22;12556;55.748;13.194;2024-02-26T04:22:53;2.10;99.90
11772;DHT22;12556;55.748;13.194;2024-02-26T04:25:20;2.10;99.90
11772;DHT22;12556;55.748;13.194;2024-02-26T04:27:46;2.10;99.90
11772;DHT22;12556;55.748;13.194;2024-02-26T04:30:13;2.00;99.90
11772;DHT22;12556;55.748;13.194;2024-02-26T04:32:40;1.90;99.90
11772;DHT22;12556;55.748;13.194;2024-02-26T04:35:07;0.70;99.90
11772;DHT22;12556;55.748;13.194;2024-02-26T04:37:34;1.80;99.90
11772;DHT22;12556;55.748;13.194;2024-02-26T04:40:03;1.80;99.90
11772;DHT22;12556;55.748;13.194;2024-02-26T04:42:30;1.80;99.90
11772;DHT22;12556;55.748;13.194;2024-02-26T04:44:57;1.90;99.90
11772;DHT22;12556;55.748;13.194;2024-02-26T04:47:24;1.70;99.90
11772;DHT22;12556;55.748;13.194;2024-02-26T04:49:51;1.70;99.90
11772;DHT22;12556;55.748;13.194;2024-02-26T04:52:18;1.70;99.90
11772;DHT22;12556;55.748;13.194;2024-02-26T04:54:45;1.70;99.90
11772;DHT22;12556;55.748;13.194;2024-02-26T04:57:14;1.60;99.90
11772;DHT22;12556;55.748;13.194;2024-02-26T04:59:41;1.60;99.90
11772;DHT22;12556;55.748;13.194;2024-02-26T05:02:08;1.60;99.90
11772;DHT22;12556;55.748;13.194;2024-02-26T05:04:35;1.60;99.90
11772;DHT22;12556;55.748;13.194;2024-02-26T05:07:02;1.50;99.90
11772;DHT22;12556;55.748;13.194;2024-02-26T05:09:29;1.50;99.90
11772;DHT22;12556;55.748;13.194;2024-02-26T05:11:56;1.40;99.90
11772;DHT22;12556;55.748;13.194;2024-02-26T05:14:24;1.40;99.90
11772;DHT22;12556;55.748;13.194;2024-02-26T05:16:51;1.40;99.90
11772;DHT22;12556;55.748;13.194;2024-02-26T05:19:18;1.40;99.90
11772;DHT22;12556;55.748;13.194;2024-02-26T05:21:45;1.40;99.90
11772;DHT22;12556;55.748;13.194;2024-02-26T05:24:14;1.40;99.90
11772;DHT22;12556;55.748;13.194;2024-02-26T05:26:42;1.40;99.90
11772;DHT22;12556;55.748;13.194;2024-02-26T05:29:10;1.40;99.90
11772;DHT22;12556;55.748;13.194;2024-02-26T05:31:38;1.40;99.90
11772;DHT22;12556;55.748;13.194;2024-02-26T05:34:05;1.40;99.90
11772;DHT22;12556;55.748;13.194;2024-02-26T05:36:32;2.30;99.90
11772;DHT22;12556;55.748;13.194;2024-02-26T05:38:59;1.40;99.90
11772;DHT22;12556;55.748;13.194;2024-02-26T05:41:26;1.40;99.90
11772;DHT22;12556;55.748;13.194;2024-02-26T05:43:53;1.40;99.90
11772;DHT22;12556;55.748;13.194;2024-02-26T05:46:21;1.40;99.90
11772;DHT22;12556;55.748;13.194;2024-02-26T05:48:51;1.40;99.90
11772;DHT22;12556;55.748;13.194;2024-02-26T05:51:18;1.50;99.90
11772;DHT22;12556;55.748;13.194;2024-02-26T05:53:44;1.50;99.90
11772;DHT22;12556;55.748;13.194;2024-02-26T05:56:12;1.50;99.90
11772;DHT22;12556;55.748;13.194;2024-02-26T05:58:39;1.50;99.90
11772;DHT22;12556;55.748;13.194;2024-02-26T06:01:06;1.60;99.90
11772;DHT22;12556;55.748;13.194;2024-02-26T06:03:33;1.60;99.90
11772;DHT22;12556;55.748;13.194;2024-02-26T06:06:01;1.70;99.90
11772;DHT22;12556;55.748;13.194;2024-02-26T06:08:28;1.60;99.90
11772;DHT22;12556;55.748;13.194;2024-02-26T06:10:55;1.60;99.90
11772;DHT22;12556;55.748;13.194;2024-02-26T06:13:22;1.70;99.90
11772;DHT22;12556;55.748;13.194;2024-02-26T06:15:49;1.70;99.90
11772;DHT22;12556;55.748;13.194;2024-02-26T06:18:15;1.70;99.90
11772;DHT22;12556;55.748;13.194;2024-02-26T06:20:42;1.80;99.90
11772;DHT22;12556;55.748;13.194;2024-02-26T06:23:12;2.20;99.90
11772;DHT22;12556;55.748;13.194;2024-02-26T06:25:39;1.90;99.90
11772;DHT22;12556;55.748;13.194;2024-02-26T06:28:07;2.00;99.90
11772;DHT22;12556;55.748;13.194;2024-02-26T06:30:33;2.00;99.90
11772;DHT22;12556;55.748;13.194;2024-02-26T06:33:00;2.10;99.90
11772;DHT22;12556;55.748;13.194;2024-02-26T06:35:28;2.10;99.90
11772;DHT22;12556;55.748;13.194;2024-02-26T06:37:54;2.10;99.90
11772;DHT22;12556;55.748;13.194;2024-02-26T06:40:23;2.20;99.90
11772;DHT22;12556;55.748;13.194;2024-02-26T06:42:50;2.20;99.90
11772;DHT22;12556;55.748;13.194;2024-02-26T06:45:17;2.20;99.90
11772;DHT22;12556;55.748;13.194;2024-02-26T06:47:45;2.30;99.90
11772;DHT22;12556;55.748;13.194;2024-02-26T06:50:12;2.30;99.90
11772;DHT22;12556;55.748;13.194;2024-02-26T06:52:40;2.30;99.90
11772;DHT22;12556;55.748;13.194;2024-02-26T06:55:07;2.40;99.90
11772;DHT22;12556;55.748;13.194;2024-02-26T06:57:36;2.40;99.90
11772;DHT22;12556;55.748;13.194;2024-02-26T07:00:03;2.50;99.90
11772;DHT22;12556;55.748;13.194;2024-02-26T07:02:31;2.50;99.90
11772;DHT22;12556;55.748;13.194;2024-02-26T07:04:58;2.50;99.90
11772;DHT22;12556;55.748;13.194;2024-02-26T07:07:25;2.60;99.90
11772;DHT22;12556;55.748;13.194;2024-02-26T07:09:52;2.60;99.90
11772;DHT22;12556;55.748;13.194;2024-02-26T07:12:19;2.70;99.90
11772;DHT22;12556;55.748;13.194;2024-02-26T07:14:48;2.80;99.90
11772;DHT22;12556;55.748;13.194;2024-02-26T07:17:16;2.80;99.90
11772;DHT22;12556;55.748;13.194;2024-02-26T07:19:43;2.80;99.90
11772;DHT22;12556;55.748;13.194;2024-02-26T07:22:10;2.90;99.90
11772;DHT22;12556;55.748;13.194;2024-02-26T07:24:37;2.90;99.90
11772;DHT22;12556;55.748;13.194;2024-02-26T07:27:04;2.90;99.90
11772;DHT22;12556;55.748;13.194;2024-02-26T07:29:30;2.90;99.90
11772;DHT22;12556;55.748;13.194;2024-02-26T07:31:59;3.00;99.90
11772;DHT22;12556;55.748;13.194;2024-02-26T07:34:26;3.00;99.90
11772;DHT22;12556;55.748;13.194;2024-02-26T07:36:54;3.00;99.90
11772;DHT22;12556;55.748;13.194;2024-02-26T07:39:21;3.10;99.90
11772;DHT22;12556;55.748;13.194;2024-02-26T07:41:48;3.20;99.90
11772;DHT22;12556;55.748;13.194;2024-02-26T07:44:17;3.20;99.90
11772;DHT22;12556;55.748;13.194;2024-02-26T07:46:44;3.10;99.90
11772;DHT22;12556;55.748;13.194;2024-02-26T07:49:12;3.20;99.90
11772;DHT22;12556;55.748;13.194;2024-02-26T07:51:39;3.20;99.90
11772;DHT22;12556;55.748;13.194;2024-02-26T07:54:06;3.20;99.90
11772;DHT22;12556;55.748;13.194;2024-02-26T07:56:33;3.20;99.90
11772;DHT22;12556;55.748;13.194;2024-02-26T07:59:00;3.30;99.90
11772;DHT22;12556;55.748;13.194;2024-02-26T08:01:27;3.40;99.90
11772;DHT22;12556;55.748;13.194;2024-02-26T08:03:54;3.50;99.90
11772;DHT22;12556;55.748;13.194;2024-02-26T08:06:23;3.50;99.90
11772;DHT22;12556;55.748;13.194;2024-02-26T08:08:50;3.60;99.90
11772;DHT22;12556;55.748;13.194;2024-02-26T08:11:17;3.70;99.90
11772;DHT22;12556;55.748;13.194;2024-02-26T08:13:44;3.80;99.90
11772;DHT22;12556;55.748;13.194;2024-02-26T08:16:10;3.90;99.90
11772;DHT22;12556;55.748;13.194;2024-02-26T08:18:37;4.00;99.90
11772;DHT22;12556;55.748;13.194;2024-02-26T08:21:04;4.10;99.90
11772;DHT22;12556;55.748;13.194;2024-02-26T08:23:32;4.20;99.90
11772;DHT22;12556;55.748;13.194;2024-02-26T08:25:59;4.40;99.90
11772;DHT22;12556;55.748;13.194;2024-02-26T08:28:26;4.50;99.90
11772;DHT22;12556;55.748;13.194;2024-02-26T08:30:53;4.60;99.90
11772;DHT22;12556;55.748;13.194;2024-02-26T08:33:20;4.70;99.90
11772;DHT22;12556;55.748;13.194;2024-02-26T08:35:47;4.80;99.90
11772;DHT22;12556;55.748;13.194;2024-02-26T08:38:14;4.90;99.90
11772;DHT22;12556;55.748;13.194;2024-02-26T08:40:42;5.00;99.90
11772;DHT22;12556;55.748;13.194;2024-02-26T08:43:09;5.10;99.90
11772;DHT22;12556;55.748;13.194;2024-02-26T08:45:36;5.20;99.90
11772;DHT22;12556;55.748;13.194;2024-02-26T08:48:04;5.20;99.90
11772;DHT22;12556;55.748;13.194;2024-02-26T08:50:31;5.20;99.90
11772;DHT22;12556;55.748;13.194;2024-02-26T08:52:58;5.30;99.90
11772;DHT22;12556;55.748;13.194;2024-02-26T08:55:26;5.40;99.90
11772;DHT22;12556;55.748;13.194;2024-02-26T08:57:54;5.50;99.90
11772;DHT22;12556;55.748;13.194;2024-02-26T09:00:21;5.60;99.90
11772;DHT22;12556;55.748;13.194;2024-02-26T09:02:48;5.70;99.90
11772;DHT22;12556;55.748;13.194;2024-02-26T09:05:15;5.80;99.90
11772;DHT22;12556;55.748;13.194;2024-02-26T09:07:42;5.80;99.90
11772;DHT22;12556;55.748;13.194;2024-02-26T09:10:09;5.80;99.90
11772;DHT22;12556;55.748;13.194;2024-02-26T09:12:36;5.80;99.90
11772;DHT22;12556;55.748;13.194;2024-02-26T09:15:07;5.90;99.90
11772;DHT22;12556;55.748;13.194;2024-02-26T09:17:34;5.90;99.90
11772;DHT22;12556;55.748;13.194;2024-02-26T09:20:02;5.90;99.90
11772;DHT22;12556;55.748;13.194;2024-02-26T09:22:29;6.00;99.90
11772;DHT22;12556;55.748;13.194;2024-02-26T09:24:56;6.00;99.90
11772;DHT22;12556;55.748;13.194;2024-02-26T09:27:23;6.10;99.90
11772;DHT22;12556;55.748;13.194;2024-02-26T09:29:50;6.20;99.90
11772;DHT22;12556;55.748;13.194;2024-02-26T09:32:18;6.20;99.90
11772;DHT22;12556;55.748;13.194;2024-02-26T09:34:45;6.20;99.90
11772;DHT22;12556;55.748;13.194;2024-02-26T09:37:12;6.20;99.90
11772;DHT22;12556;55.748;13.194;2024-02-26T09:39:39;6.30;99.90
11772;DHT22;12556;55.748;13.194;2024-02-26T09:42:06;6.30;99.90
11772;DHT22;12556;55.748;13.194;2024-02-26T09:44:36;6.40;99.90
11772;DHT22;12556;55.748;13.194;2024-02-26T09:47:08;6.50;99.90
11772;DHT22;12556;55.748;13.194;2024-02-26T09:49:38;6.60;99.90
11772;DHT22;12556;55.748;13.194;2024-02-26T09:52:06;6.70;99.90
11772;DHT22;12556;55.748;13.194;2024-02-26T09:54:35;6.70;99.90
11772;DHT22;12556;55.748;13.194;2024-02-26T09:57:03;6.70;99.90
11772;DHT22;12556;55.748;13.194;2024-02-26T09:59:38;6.80;99.90
11772;DHT22;12556;55.748;13.194;2024-02-26T10:02:07;7.00;99.90
11772;DHT22;12556;55.748;13.194;2024-02-26T10:04:35;7.00;99.90
11772;DHT22;12556;55.748;13.194;2024-02-26T10:07:05;7.20;99.90
11772;DHT22;12556;55.748;13.194;2024-02-26T10:09:35;7.30;99.90
11772;DHT22;12556;55.748;13.194;2024-02-26T10:12:02;7.40;99.90
11772;DHT22;12556;55.748;13.194;2024-02-26T10:14:30;7.60;99.90
11772;DHT22;12556;55.748;13.194;2024-02-26T10:16:57;7.70;99.90
11772;DHT22;12556;55.748;13.194;2024-02-26T10:19:27;7.80;99.90
11772;DHT22;12556;55.748;13.194;2024-02-26T10:21:58;7.80;99.90
11772;DHT22;12556;55.748;13.194;2024-02-26T10:24:26;7.90;99.90
11772;DHT22;12556;55.748;13.194;2024-02-26T10:26:54;7.90;99.90
11772;DHT22;12556;55.748;13.194;2024-02-26T10:29:23;7.90;99.90
11772;DHT22;12556;55.748;13.194;2024-02-26T10:31:50;7.80;99.90
11772;DHT22;12556;55.748;13.194;2024-02-26T10:34:18;7.80;99.90
11772;DHT22;12556;55.748;13.194;2024-02-26T10:36:45;7.90;99.90
11772;DHT22;12556;55.748;13.194;2024-02-26T10:39:12;7.80;99.90
11772;DHT22;12556;55.748;13.194;2024-02-26T10:41:43;7.80;99.90
11772;DHT22;12556;55.748;13.194;2024-02-26T10:44:11;7.80;99.90
11772;DHT22;12556;55.748;13.194;2024-02-26T10:46:40;7.80;99.90
11772;DHT22;12556;55.748;13.194;2024-02-26T10:49:13;7.80;99.90
11772;DHT22;12556;55.748;13.194;2024-02-26T10:51:44;7.90;99.90
11772;DHT22;12556;55.748;13.194;2024-02-26T10:54:15;7.90;99.90
11772;DHT22;12556;55.748;13.194;2024-02-26T10:56:44;7.90;99.90
11772;DHT22;12556;55.748;13.194;2024-02-26T10:59:13;7.90;99.90
11772;DHT22;12556;55.748;13.194;2024-02-26T11:01:41;7.90;99.90
11772;DHT22;12556;55.748;13.194;2024-02-26T11:04:12;7.80;99.90
11772;DHT22;12556;55.748;13.194;2024-02-26T11:06:40;7.80;99.90
11772;DHT22;12556;55.748;13.194;2024-02-26T11:09:08;7.80;99.90
11772;DHT22;12556;55.748;13.194;2024-02-26T11:11:38;7.90;99.90
11772;DHT22;12556;55.748;13.194;2024-02-26T11:14:08;8.00;99.90
11772;DHT22;12556;55.748;13.194;2024-02-26T11:16:38;8.20;99.90
11772;DHT22;12556;55.748;13.194;2024-02-26T11:19:08;8.30;99.90
11772;DHT22;12556;55.748;13.194;2024-02-26T11:21:35;8.40;99.90
11772;DHT22;12556;55.748;13.194;2024-02-26T11:24:08;8.50;99.90
11772;DHT22;12556;55.748;13.194;2024-02-26T11:26:39;8.80;99.90
11772;DHT22;12556;55.748;13.194;2024-02-26T11:29:09;9.00;99.90
11772;DHT22;12556;55.748;13.194;2024-02-26T11:31:38;9.20;99.90
11772;DHT22;12556;55.748;13.194;2024-02-26T11:34:07;9.40;99.90
11772;DHT22;12556;55.748;13.194;2024-02-26T11:36:36;9.50;99.90
11772;DHT22;12556;55.748;13.194;2024-02-26T11:39:05;9.80;99.90
11772;DHT22;12556;55.748;13.194;2024-02-26T11:41:33;10.10;99.90
11772;DHT22;12556;55.748;13.194;2024-02-26T11:44:01;10.20;99.90
11772;DHT22;12556;55.748;13.194;2024-02-26T11:46:31;10.40;99.90
11772;DHT22;12556;55.748;13.194;2024-02-26T11:48:59;10.50;99.90
11772;DHT22;12556;55.748;13.194;2024-02-26T11:51:27;10.60;99.90
11772;DHT22;12556;55.748;13.194;2024-02-26T11:53:54;10.60;99.90
11772;DHT22;12556;55.748;13.194;2024-02-26T11:56:24;10.70;99.90
11772;DHT22;12556;55.748;13.194;2024-02-26T11:58:59;10.90;99.90
11772;DHT22;12556;55.748;13.194;2024-02-26T12:01:44;11.20;99.90
11772;DHT22;12556;55.748;13.194;2024-02-26T12:04:17;11.40;99.90
11772;DHT22;12556;55.748;13.194;2024-02-26T12:06:47;11.60;99.90
11772;DHT22;12556;55.748;13.194;2024-02-26T12:09:30;11.80;99.90
11772;DHT22;12556;55.748;13.194;2024-02-26T12:11:57;11.80;99.90
11772;DHT22;12556;55.748;13.194;2024-02-26T12:14:25;11.80;99.90
11772;DHT22;12556;55.748;13.194;2024-02-26T12:16:55;11.90;99.90
11772;DHT22;12556;55.748;13.194;2024-02-26T12:19:24;12.00;99.90
11772;DHT22;12556;55.748;13.194;2024-02-26T12:21:52;12.30;99.90
11772;DHT22;12556;55.748;13.194;2024-02-26T12:24:20;12.40;99.90
11772;DHT22;12556;55.748;13.194;2024-02-26T12:26:47;12.40;99.90
11772;DHT22;12556;55.748;13.194;2024-02-26T12:29:14;12.50;99.90
11772;DHT22;12556;55.748;13.194;2024-02-26T12:31:42;12.60;99.90
11772;DHT22;12556;55.748;13.194;2024-02-26T12:34:10;12.40;99.90
11772;DHT22;12556;55.748;13.194;2024-02-26T12:36:37;12.20;99.90
11772;DHT22;12556;55.748;13.194;2024-02-26T12:39:06;12.10;99.90
11772;DHT22;12556;55.748;13.194;2024-02-26T12:41:35;11.80;99.90
11772;DHT22;12556;55.748;13.194;2024-02-26T12:44:02;11.90;99.90
11772;DHT22;12556;55.748;13.194;2024-02-26T12:46:29;11.80;99.90
11772;DHT22;12556;55.748;13.194;2024-02-26T12:48:58;11.90;99.90
11772;DHT22;12556;55.748;13.194;2024-02-26T12:51:26;11.80;99.90
11772;DHT22;12556;55.748;13.194;2024-02-26T12:53:54;11.80;99.90
11772;DHT22;12556;55.748;13.194;2024-02-26T12:56:22;11.60;99.90
11772;DHT22;12556;55.748;13.194;2024-02-26T12:58:50;11.40;99.90
11772;DHT22;12556;55.748;13.194;2024-02-26T13:01:21;11.40;99.90
11772;DHT22;12556;55.748;13.194;2024-02-26T13:03:49;11.30;99.90
11772;DHT22;12556;55.748;13.194;2024-02-26T13:06:17;11.10;99.90
11772;DHT22;12556;55.748;13.194;2024-02-26T13:08:45;11.00;99.90
11772;DHT22;12556;55.748;13.194;2024-02-26T13:11:12;11.00;99.90
11772;DHT22;12556;55.748;13.194;2024-02-26T13:13:39;10.90;99.90
11772;DHT22;12556;55.748;13.194;2024-02-26T13:16:08;10.90;99.90
11772;DHT22;12556;55.748;13.194;2024-02-26T13:18:35;10.80;99.90
11772;DHT22;12556;55.748;13.194;2024-02-26T13:21:09;10.80;99.90
11772;DHT22;12556;55.748;13.194;2024-02-26T13:23:37;10.80;99.90
11772;DHT22;12556;55.748;13.194;2024-02-26T13:26:06;10.90;99.90
11772;DHT22;12556;55.748;13.194;2024-02-26T13:28:33;10.90;99.90
11772;DHT22;12556;55.748;13.194;2024-02-26T13:31:01;10.80;99.90
11772;DHT22;12556;55.748;13.194;2024-02-26T13:33:30;10.80;99.90
11772;DHT22;12556;55.748;13.194;2024-02-26T13:35:58;10.70;99.90
11772;DHT22;12556;55.748;13.194;2024-02-26T13:38:25;10.60;99.90
11772;DHT22;12556;55.748;13.194;2024-02-26T13:40:53;10.60;99.90
11772;DHT22;12556;55.748;13.194;2024-02-26T13:43:22;10.60;99.90
11772;DHT22;12556;55.748;13.194;2024-02-26T13:45:49;10.50;99.90
11772;DHT22;12556;55.748;13.194;2024-02-26T13:48:16;10.50;99.90
11772;DHT22;12556;55.748;13.194;2024-02-26T13:50:43;10.50;99.90
11772;DHT22;12556;55.748;13.194;2024-02-26T13:53:11;10.50;99.90
11772;DHT22;12556;55.748;13.194;2024-02-26T13:55:39;10.60;99.90
11772;DHT22;12556;55.748;13.194;2024-02-26T13:58:08;10.60;99.90
11772;DHT22;12556;55.748;13.194;2024-02-26T14:00:37;10.60;99.90
11772;DHT22;12556;55.748;13.194;2024-02-26T14:03:04;10.50;99.90
11772;DHT22;12556;55.748;13.194;2024-02-26T14:05:31;10.40;99.90
11772;DHT22;12556;55.748;13.194;2024-02-26T14:07:58;10.30;99.90
11772;DHT22;12556;55.748;13.194;2024-02-26T14:10:25;10.30;99.90
11772;DHT22;12556;55.748;13.194;2024-02-26T14:12:52;10.20;99.90
11772;DHT22;12556;55.748;13.194;2024-02-26T14:15:19;10.20;99.90
11772;DHT22;12556;55.748;13.194;2024-02-26T14:17:47;10.20;99.90
11772;DHT22;12556;55.748;13.194;2024-02-26T14:20:19;10.10;99.90
11772;DHT22;12556;55.748;13.194;2024-02-26T14:22:46;9.90;99.90
11772;DHT22;12556;55.748;13.194;2024-02-26T14:25:13;9.80;99.90
11772;DHT22;12556;55.748;13.194;2024-02-26T14:27:40;9.70;99.90
11772;DHT22;12556;55.748;13.194;2024-02-26T14:30:08;9.70;99.90
11772;DHT22;12556;55.748;13.194;2024-02-26T14:32:35;9.60;99.90
11772;DHT22;12556;55.748;13.194;2024-02-26T14:35:05;9.60;99.90
11772;DHT22;12556;55.748;13.194;2024-02-26T14:37:33;9.40;99.90
11772;DHT22;12556;55.748;13.194;2024-02-26T14:40:00;9.30;99.90
11772;DHT22;12556;55.748;13.194;2024-02-26T14:42:28;9.30;99.90
11772;DHT22;12556;55.748;13.194;2024-02-26T14:44:55;9.30;99.90
11772;DHT22;12556;55.748;13.194;2024-02-26T14:47:22;9.20;99.90
11772;DHT22;12556;55.748;13.194;2024-02-26T14:49:49;9.30;99.90
11772;DHT22;12556;55.748;13.194;2024-02-26T14:52:18;9.20;99.90
11772;DHT22;12556;55.748;13.194;2024-02-26T14:54:45;9.10;99.90
11772;DHT22;12556;55.748;13.194;2024-02-26T14:57:12;9.10;99.90
11772;DHT22;12556;55.748;13.194;2024-02-26T14:59:39;9.00;99.90
11772;DHT22;12556;55.748;13.194;2024-02-26T15:02:07;9.10;99.90
11772;DHT22;12556;55.748;13.194;2024-02-26T15:04:35;9.00;99.90
11772;DHT22;12556;55.748;13.194;2024-02-26T15:07:03;9.00;99.90
11772;DHT22;12556;55.748;13.194;2024-02-26T15:09:31;9.00;99.90
11772;DHT22;12556;55.748;13.194;2024-02-26T15:11:58;8.90;99.90
11772;DHT22;12556;55.748;13.194;2024-02-26T15:14:25;8.80;99.90
11772;DHT22;12556;55.748;13.194;2024-02-26T15:16:52;8.70;99.90
11772;DHT22;12556;55.748;13.194;2024-02-26T15:19:19;8.70;99.90
11772;DHT22;12556;55.748;13.194;2024-02-26T15:21:47;8.70;99.90
11772;DHT22;12556;55.748;13.194;2024-02-26T15:24:14;8.70;99.90
11772;DHT22;12556;55.748;13.194;2024-02-26T15:26:44;8.60;99.90
11772;DHT22;12556;55.748;13.194;2024-02-26T15:29:11;8.60;99.90
11772;DHT22;12556;55.748;13.194;2024-02-26T15:31:38;8.50;99.90